sensor_id;sensor_type;location;lat;lon;timestamp;temperature;humidity
12853;DHT22;6495;51.808;7.478;2024-01-10T00:00:43;-3.40;99.90
12853;DHT22;6495;51.808;7.478;2024-01-10T00:03:11;-3.40;99.90
12853;DHT22;6495;51.808;7.478;2024-01-10T00:05:39;-3.40;99.90
12853;DHT22;6495;51.808;7.478;2024-01-10T00:08:09;-3.40;99.90
12853;DHT22;6495;51.808;7.478;2024-01-10T00:10:37;-3.40;99.90
12853;DHT22;6495;51.808;7.478;2024-01-10T00:13:06;-3.40;99.90
12853;DHT22;6495;51.808;7.478;2024-01-10T00:15:34;-3.40;99.90
12853;DHT22;6495;51.808;7.478;2024-01-10T00:18:02;-3.40;99.90
12853;DHT22;6495;51.808;7.478;2024-01-10T00:20:31;-3.50;99.90
12853;DHT22;6495;51.808;7.478;2024-01-10T00:22:59;-3.50;99.90
12853;DHT22;6495;51.808;7.478;2024-01-10T00:25:29;-3.50;99.90
12853;DHT22;6495;51.808;7.478;2024-01-10T00:27:57;-3.50;99.90
12853;DHT22;6495;51.808;7.478;2024-01-10T00:30:25;-3.50;99.90
12853;DHT22;6495;51.808;7.478;2024-01-10T00:32:54;-3.50;99.90
12853;DHT22;6495;51.808;7.478;2024-01-10T00:35:23;-3.50;99.90
12853;DHT22;6495;51.808;7.478;2024-01-10T00:37:51;-3.50;99.90
12853;DHT22;6495;51.808;7.478;2024-01-10T00:40:19;-3.60;99.90
12853;DHT22;6495;51.808;7.478;2024-01-10T00:42:49;-3.60;99.90
12853;DHT22;6495;51.808;7.478;2024-01-10T00:45:17;-3.60;99.90
12853;DHT22;6495;51.808;7.478;2024-01-10T00:47:46;-3.60;99.90
12853;DHT22;6495;51.808;7.478;2024-01-10T00:50:16;-3.60;99.90
12853;DHT22;6495;51.808;7.478;2024-01-10T00:52:44;-3.60;99.90
12853;DHT22;6495;51.808;7.478;2024-01-10T00:55:13;-3.60;99.90
12853;DHT22;6495;51.808;7.478;2024-01-10T00:57:41;-3.60;99.90
12853;DHT22;6495;51.808;7.478;2024-01-10T01:00:12;-3.60;99.90
12853;DHT22;6495;51.808;7.478;2024-01-10T01:02:41;-3.60;99.90
12853;DHT22;6495;51.808;7.478;2024-01-10T01:05:09;-3.70;99.90
12853;DHT22;6495;51.808;7.478;2024-01-10T01:07:37;-3.70;99.90
12853;DHT22;6495;51.808;7.478;2024-01-10T01:10:06;-3.70;99.90
12853;DHT22;6495;51.808;7.478;2024-01-10T01:12:35;-3.70;99.90
12853;DHT22;6495;51.808;7.478;2024-01-10T01:15:07;-3.70;99.90
12853;DHT22;6495;51.808;7.478;2024-01-10T01:17:37;-3.70;99.90
12853;DHT22;6495;51.808;7.478;2024-01-10T01:20:07;-3.70;99.90
12853;DHT22;6495;51.808;7.478;2024-01-10T01:22:36;-3.70;99.90
12853;DHT22;6495;51.808;7.478;2024-01-10T01:25:08;-3.70;99.90
12853;DHT22;6495;51.808;7.478;2024-01-10T01:27:36;-3.80;99.90
12853;DHT22;6495;51.808;7.478;2024-01-10T01:30:06;-3.80;99.90
12853;DHT22;6495;51.808;7.478;2024-01-10T01:32:36;-3.80;99.90
12853;DHT22;6495;51.808;7.478;2024-01-10T01:35:05;-3.80;99.90
12853;DHT22;6495;51.808;7.478;2024-01-10T01:37:34;-3.80;99.90
12853;DHT22;6495;51.808;7.478;2024-01-10T01:40:02;-3.80;99.90
12853;DHT22;6495;51.808;7.478;2024-01-10T01:42:31;-3.80;99.90
12853;DHT22;6495;51.808;7.478;2024-01-10T01:44:59;-3.80;99.90
12853;DHT22;6495;51.808;7.478;2024-01-10T01:47:27;-3.80;99.90
12853;DHT22;6495;51.808;7.478;2024-01-10T01:49:57;-3.80;99.90
12853;DHT22;6495;51.808;7.478;2024-01-10T01:52:26;-3.80;99.90
12853;DHT22;6495;51.808;7.478;2024-01-10T01:54:56;-3.80;99.90
12853;DHT22;6495;51.808;7.478;2024-01-10T01:57:25;-3.80;99.90
12853;DHT22;6495;51.808;7.478;2024-01-10T01:59:53;-3.80;99.90
12853;DHT22;6495;51.808;7.478;2024-01-10T02:02:22;-3.80;99.90
12853;DHT22;6495;51.808;7.478;2024-01-10T02:04:52;-3.80;99.90
12853;DHT22;6495;51.808;7.478;2024-01-10T02:07:22;-3.90;99.90
12853;DHT22;6495;51.808;7.478;2024-01-10T02:09:50;-3.90;99.90
12853;DHT22;6495;51.808;7.478;2024-01-10T02:12:18;-3.90;99.90
12853;DHT22;6495;51.808;7.478;2024-01-10T02:14:46;-3.90;99.90
12853;DHT22;6495;51.808;7.478;2024-01-10T02:17:15;-3.90;99.90
12853;DHT22;6495;51.808;7.478;2024-01-10T02:19:43;-3.90;99.90
12853;DHT22;6495;51.808;7.478;2024-01-10T02:22:12;-3.90;99.90
12853;DHT22;6495;51.808;7.478;2024-01-10T02:24:41;-4.00;99.90
12853;DHT22;6495;51.808;7.478;2024-01-10T02:27:11;-4.00;99.90
12853;DHT22;6495;51.808;7.478;2024-01-10T02:29:39;-4.00;99.90
12853;DHT22;6495;51.808;7.478;2024-01-10T02:32:07;-4.00;99.90
12853;DHT22;6495;51.808;7.478;2024-01-10T02:34:36;-4.00;99.90
12853;DHT22;6495;51.808;7.478;2024-01-10T02:37:03;-4.00;99.90
12853;DHT22;6495;51.808;7.478;2024-01-10T02:39:31;-4.00;99.90
12853;DHT22;6495;51.808;7.478;2024-01-10T02:42:00;-4.00;99.90
12853;DHT22;6495;51.808;7.478;2024-01-10T02:44:30;-4.00;99.90
12853;DHT22;6495;51.808;7.478;2024-01-10T02:46:58;-4.00;99.90
12853;DHT22;6495;51.808;7.478;2024-01-10T02:49:26;-4.00;99.90
12853;DHT22;6495;51.808;7.478;2024-01-10T02:51:54;-4.00;99.90
12853;DHT22;6495;51.808;7.478;2024-01-10T02:54:22;-4.00;99.90
12853;DHT22;6495;51.808;7.478;2024-01-10T02:56:51;-4.00;99.90
12853;DHT22;6495;51.808;7.478;2024-01-10T02:59:19;-4.00;99.90
12853;DHT22;6495;51.808;7.478;2024-01-10T03:01:49;-4.00;99.90
12853;DHT22;6495;51.808;7.478;2024-01-10T03:04:17;-4.00;99.90
12853;DHT22;6495;51.808;7.478;2024-01-10T03:06:46;-4.10;99.90
12853;DHT22;6495;51.808;7.478;2024-01-10T03:09:14;-4.00;99.90
12853;DHT22;6495;51.808;7.478;2024-01-10T03:11:43;-4.10;99.90
12853;DHT22;6495;51.808;7.478;2024-01-10T03:14:11;-4.10;99.90
12853;DHT22;6495;51.808;7.478;2024-01-10T03:16:39;-4.10;99.90
12853;DHT22;6495;51.808;7.478;2024-01-10T03:19:09;-4.10;99.90
12853;DHT22;6495;51.808;7.478;2024-01-10T03:21:37;-4.10;99.90
12853;DHT22;6495;51.808;7.478;2024-01-10T03:24:06;-4.10;99.90
12853;DHT22;6495;51.808;7.478;2024-01-10T03:26:35;-4.10;99.90
12853;DHT22;6495;51.808;7.478;2024-01-10T03:29:03;-4.10;99.90
12853;DHT22;6495;51.808;7.478;2024-01-10T03:31:31;-4.10;99.90
12853;DHT22;6495;51.808;7.478;2024-01-10T03:34:00;-4.10;99.90
12853;DHT22;6495;51.808;7.478;2024-01-10T03:36:33;-4.10;99.90
12853;DHT22;6495;51.808;7.478;2024-01-10T03:39:01;-4.10;99.90
12853;DHT22;6495;51.808;7.478;2024-01-10T03:41:29;-4.10;99.90
12853;DHT22;6495;51.808;7.478;2024-01-10T03:43:57;-4.10;99.90
12853;DHT22;6495;51.808;7.478;2024-01-10T03:46:26;-4.10;99.90
12853;DHT22;6495;51.808;7.478;2024-01-10T03:48:54;-4.10;99.90
12853;DHT22;6495;51.808;7.478;2024-01-10T03:51:22;-4.10;99.90
12853;DHT22;6495;51.808;7.478;2024-01-10T03:53:52;-4.10;99.90
12853;DHT22;6495;51.808;7.478;2024-01-10T03:56:21;-4.10;99.90
12853;DHT22;6495;51.808;7.478;2024-01-10T03:58:50;-4.20;99.90
12853;DHT22;6495;51.808;7.478;2024-01-10T04:01:22;-4.10;99.90
12853;DHT22;6495;51.808;7.478;2024-01-10T04:03:51;-4.20;99.90
12853;DHT22;6495;51.808;7.478;2024-01-10T04:06:19;-4.20;99.90
12853;DHT22;6495;51.808;7.478;2024-01-10T04:08:47;-4.20;99.90
12853;DHT22;6495;51.808;7.478;2024-01-10T04:11:17;-4.20;99.90
12853;DHT22;6495;51.808;7.478;2024-01-10T04:13:45;-4.20;99.90
12853;DHT22;6495;51.808;7.478;2024-01-10T04:16:14;-4.20;99.90
12853;DHT22;6495;51.808;7.478;2024-01-10T04:18:42;-4.20;99.90
12853;DHT22;6495;51.808;7.478;2024-01-10T04:21:18;-4.20;99.90
12853;DHT22;6495;51.808;7.478;2024-01-10T04:23:46;-4.20;99.90
12853;DHT22;6495;51.808;7.478;2024-01-10T04:26:14;-4.30;99.90
12853;DHT22;6495;51.808;7.478;2024-01-10T04:28:45;-4.30;99.90
12853;DHT22;6495;51.808;7.478;2024-01-10T04:31:13;-4.30;99.90
12853;DHT22;6495;51.808;7.478;2024-01-10T04:33:41;-4.30;99.90
12853;DHT22;6495;51.808;7.478;2024-01-10T04:36:09;-4.30;99.90
12853;DHT22;6495;51.808;7.478;2024-01-10T04:38:38;-4.30;99.90
12853;DHT22;6495;51.808;7.478;2024-01-10T04:41:06;-4.30;99.90
12853;DHT22;6495;51.808;7.478;2024-01-10T04:43:34;-4.30;99.90
12853;DHT22;6495;51.808;7.478;2024-01-10T04:46:04;-4.30;99.90
12853;DHT22;6495;51.808;7.478;2024-01-10T04:48:32;-4.30;99.90
12853;DHT22;6495;51.808;7.478;2024-01-10T04:51:00;-4.30;99.90
12853;DHT22;6495;51.808;7.478;2024-01-10T04:53:29;-4.30;99.90
12853;DHT22;6495;51.808;7.478;2024-01-10T04:55:57;-4.30;99.90
12853;DHT22;6495;51.808;7.478;2024-01-10T04:58:25;-4.30;99.90
12853;DHT22;6495;51.808;7.478;2024-01-10T05:00:54;-4.30;99.90
12853;DHT22;6495;51.808;7.478;2024-01-10T05:03:23;-4.40;99.90
12853;DHT22;6495;51.808;7.478;2024-01-10T05:05:52;-4.40;99.90
12853;DHT22;6495;51.808;7.478;2024-01-10T05:08:20;-4.40;99.90
12853;DHT22;6495;51.808;7.478;2024-01-10T05:10:49;-4.40;99.90
12853;DHT22;6495;51.808;7.478;2024-01-10T05:13:17;-4.40;99.90
12853;DHT22;6495;51.808;7.478;2024-01-10T05:15:45;-4.40;99.90
12853;DHT22;6495;51.808;7.478;2024-01-10T05:18:14;-4.40;99.90
12853;DHT22;6495;51.808;7.478;2024-01-10T05:20:44;-4.40;99.90
12853;DHT22;6495;51.808;7.478;2024-01-10T05:23:13;-4.40;99.90
12853;DHT22;6495;51.808;7.478;2024-01-10T05:25:40;-4.50;99.90
12853;DHT22;6495;51.808;7.478;2024-01-10T05:28:08;-4.50;99.90
12853;DHT22;6495;51.808;7.478;2024-01-10T05:30:37;-4.50;99.90
12853;DHT22;6495;51.808;7.478;2024-01-10T05:33:05;-4.50;99.90
12853;DHT22;6495;51.808;7.478;2024-01-10T05:35:33;-4.50;99.90
12853;DHT22;6495;51.808;7.478;2024-01-10T05:38:04;-4.50;99.90
12853;DHT22;6495;51.808;7.478;2024-01-10T05:40:32;-4.50;99.90
12853;DHT22;6495;51.808;7.478;2024-01-10T05:43:07;-4.50;99.90
12853;DHT22;6495;51.808;7.478;2024-01-10T05:45:37;-4.50;99.90
12853;DHT22;6495;51.808;7.478;2024-01-10T05:48:07;-4.50;99.90
12853;DHT22;6495;51.808;7.478;2024-01-10T05:50:36;-4.50;99.90
12853;DHT22;6495;51.808;7.478;2024-01-10T05:53:19;-4.60;99.90
12853;DHT22;6495;51.808;7.478;2024-01-10T05:55:48;-4.50;99.90
12853;DHT22;6495;51.808;7.478;2024-01-10T05:58:16;-4.60;99.90
12853;DHT22;6495;51.808;7.478;2024-01-10T06:00:44;-4.60;99.90
12853;DHT22;6495;51.808;7.478;2024-01-10T06:03:13;-4.60;99.90
12853;DHT22;6495;51.808;7.478;2024-01-10T06:05:41;-4.60;99.90
12853;DHT22;6495;51.808;7.478;2024-01-10T06:08:09;-4.60;99.90
12853;DHT22;6495;51.808;7.478;2024-01-10T06:10:39;-4.60;99.90
12853;DHT22;6495;51.808;7.478;2024-01-10T06:13:08;-4.60;99.90
12853;DHT22;6495;51.808;7.478;2024-01-10T06:15:36;-4.60;99.90
12853;DHT22;6495;51.808;7.478;2024-01-10T06:18:04;-4.60;99.90
12853;DHT22;6495;51.808;7.478;2024-01-10T06:20:33;-4.60;99.90
12853;DHT22;6495;51.808;7.478;2024-01-10T06:23:05;-4.60;99.90
12853;DHT22;6495;51.808;7.478;2024-01-10T06:25:33;-4.60;99.90
12853;DHT22;6495;51.808;7.478;2024-01-10T06:28:03;-4.60;99.90
12853;DHT22;6495;51.808;7.478;2024-01-10T06:30:32;-4.60;99.90
12853;DHT22;6495;51.808;7.478;2024-01-10T06:33:02;-4.60;99.90
12853;DHT22;6495;51.808;7.478;2024-01-10T06:35:34;-4.70;99.90
12853;DHT22;6495;51.808;7.478;2024-01-10T06:38:02;-4.60;99.90
12853;DHT22;6495;51.808;7.478;2024-01-10T06:40:31;-4.70;99.90
12853;DHT22;6495;51.808;7.478;2024-01-10T06:42:59;-4.70;99.90
12853;DHT22;6495;51.808;7.478;2024-01-10T06:45:30;-4.70;99.90
12853;DHT22;6495;51.808;7.478;2024-01-10T06:47:58;-4.70;99.90
12853;DHT22;6495;51.808;7.478;2024-01-10T06:50:26;-4.80;99.90
12853;DHT22;6495;51.808;7.478;2024-01-10T06:52:55;-4.80;99.90
12853;DHT22;6495;51.808;7.478;2024-01-10T06:55:23;-4.80;99.90
12853;DHT22;6495;51.808;7.478;2024-01-10T06:57:52;-4.80;99.90
12853;DHT22;6495;51.808;7.478;2024-01-10T07:00:21;-4.80;99.90
12853;DHT22;6495;51.808;7.478;2024-01-10T07:02:51;-4.80;99.90
12853;DHT22;6495;51.808;7.478;2024-01-10T07:05:20;-4.80;99.90
12853;DHT22;6495;51.808;7.478;2024-01-10T07:07:48;-4.80;99.90
12853;DHT22;6495;51.808;7.478;2024-01-10T07:10:17;-4.80;99.90
12853;DHT22;6495;51.808;7.478;2024-01-10T07:12:45;-4.80;99.90
12853;DHT22;6495;51.808;7.478;2024-01-10T07:15:17;-4.80;99.90
12853;DHT22;6495;51.808;7.478;2024-01-10T07:17:45;-4.80;99.90
12853;DHT22;6495;51.808;7.478;2024-01-10T07:20:15;-4.80;99.90
12853;DHT22;6495;51.808;7.478;2024-01-10T07:22:53;-4.90;99.90
12853;DHT22;6495;51.808;7.478;2024-01-10T07:25:21;-4.90;99.90
12853;DHT22;6495;51.808;7.478;2024-01-10T07:27:52;-4.90;99.90
12853;DHT22;6495;51.808;7.478;2024-01-10T07:30:20;-4.90;99.90
12853;DHT22;6495;51.808;7.478;2024-01-10T07:32:49;-4.90;99.90
12853;DHT22;6495;51.808;7.478;2024-01-10T07:35:18;-4.90;99.90
12853;DHT22;6495;51.808;7.478;2024-01-10T07:37:47;-4.90;99.90
12853;DHT22;6495;51.808;7.478;2024-01-10T07:40:16;-5.00;99.90
12853;DHT22;6495;51.808;7.478;2024-01-10T07:42:44;-4.90;99.90
12853;DHT22;6495;51.808;7.478;2024-01-10T07:45:13;-4.90;99.90
12853;DHT22;6495;51.808;7.478;2024-01-10T07:47:43;-4.90;99.90
12853;DHT22;6495;51.808;7.478;2024-01-10T07:50:13;-5.00;99.90
12853;DHT22;6495;51.808;7.478;2024-01-10T07:52:44;-5.00;99.90
12853;DHT22;6495;51.808;7.478;2024-01-10T07:55:13;-5.00;99.90
12853;DHT22;6495;51.808;7.478;2024-01-10T07:57:42;-5.00;99.90
12853;DHT22;6495;51.808;7.478;2024-01-10T08:00:14;-4.90;99.90
12853;DHT22;6495;51.808;7.478;2024-01-10T08:02:47;-5.00;99.90
12853;DHT22;6495;51.808;7.478;2024-01-10T08:05:16;-4.90;99.90
12853;DHT22;6495;51.808;7.478;2024-01-10T08:07:49;-4.90;99.90
12853;DHT22;6495;51.808;7.478;2024-01-10T08:10:18;-4.90;99.90
12853;DHT22;6495;51.808;7.478;2024-01-10T08:12:46;-4.80;99.90
12853;DHT22;6495;51.808;7.478;2024-01-10T08:15:15;-4.80;99.90
12853;DHT22;6495;51.808;7.478;2024-01-10T08:17:43;-4.70;99.90
12853;DHT22;6495;51.808;7.478;2024-01-10T08:20:12;-4.70;99.90
12853;DHT22;6495;51.808;7.478;2024-01-10T08:22:42;-4.70;99.90
12853;DHT22;6495;51.808;7.478;2024-01-10T08:25:13;-4.70;99.90
12853;DHT22;6495;51.808;7.478;2024-01-10T08:27:42;-4.60;99.90
12853;DHT22;6495;51.808;7.478;2024-01-10T08:30:12;-4.60;99.90
12853;DHT22;6495;51.808;7.478;2024-01-10T08:32:41;-4.50;99.90
12853;DHT22;6495;51.808;7.478;2024-01-10T08:35:09;-4.50;99.90
12853;DHT22;6495;51.808;7.478;2024-01-10T08:37:38;-4.40;99.90
12853;DHT22;6495;51.808;7.478;2024-01-10T08:40:10;-4.40;99.90
12853;DHT22;6495;51.808;7.478;2024-01-10T08:42:43;-4.30;99.90
12853;DHT22;6495;51.808;7.478;2024-01-10T08:45:11;-4.20;99.90
12853;DHT22;6495;51.808;7.478;2024-01-10T08:47:41;-4.20;99.90
12853;DHT22;6495;51.808;7.478;2024-01-10T08:50:10;-4.10;99.90
12853;DHT22;6495;51.808;7.478;2024-01-10T08:52:39;-4.00;99.90
12853;DHT22;6495;51.808;7.478;2024-01-10T08:55:08;-4.00;99.90
12853;DHT22;6495;51.808;7.478;2024-01-10T08:57:40;-3.90;99.90
12853;DHT22;6495;51.808;7.478;2024-01-10T09:00:11;-3.90;99.90
12853;DHT22;6495;51.808;7.478;2024-01-10T09:02:43;-3.80;99.90
12853;DHT22;6495;51.808;7.478;2024-01-10T09:05:11;-3.70;99.90
12853;DHT22;6495;51.808;7.478;2024-01-10T09:07:39;-3.70;99.90
12853;DHT22;6495;51.808;7.478;2024-01-10T09:10:09;-3.60;99.90
12853;DHT22;6495;51.808;7.478;2024-01-10T09:12:37;-3.50;99.90
12853;DHT22;6495;51.808;7.478;2024-01-10T09:15:11;-3.40;99.90
12853;DHT22;6495;51.808;7.478;2024-01-10T09:17:41;-3.40;99.90
12853;DHT22;6495;51.808;7.478;2024-01-10T09:20:10;-3.30;99.90
12853;DHT22;6495;51.808;7.478;2024-01-10T09:22:40;-3.20;99.90
12853;DHT22;6495;51.808;7.478;2024-01-10T09:25:09;-3.10;99.90
12853;DHT22;6495;51.808;7.478;2024-01-10T09:27:39;-3.00;99.90
12853;DHT22;6495;51.808;7.478;2024-01-10T09:30:13;-3.00;99.90
12853;DHT22;6495;51.808;7.478;2024-01-10T09:32:44;-2.90;99.90
12853;DHT22;6495;51.808;7.478;2024-01-10T09:35:14;-2.80;99.90
12853;DHT22;6495;51.808;7.478;2024-01-10T09:37:42;-2.70;99.90
12853;DHT22;6495;51.808;7.478;2024-01-10T09:40:14;-2.60;99.90
12853;DHT22;6495;51.808;7.478;2024-01-10T09:42:44;-2.50;99.90
12853;DHT22;6495;51.808;7.478;2024-01-10T09:45:20;-2.40;99.90
12853;DHT22;6495;51.808;7.478;2024-01-10T09:47:53;-2.30;99.90
12853;DHT22;6495;51.808;7.478;2024-01-10T09:50:24;-2.30;99.90
12853;DHT22;6495;51.808;7.478;2024-01-10T09:52:56;-2.20;99.90
12853;DHT22;6495;51.808;7.478;2024-01-10T09:55:34;-2.10;99.90
12853;DHT22;6495;51.808;7.478;2024-01-10T09:58:05;-2.00;99.90
12853;DHT22;6495;51.808;7.478;2024-01-10T10:00:37;-1.90;99.90
12853;DHT22;6495;51.808;7.478;2024-01-10T10:03:09;-1.80;99.90
12853;DHT22;6495;51.808;7.478;2024-01-10T10:05:40;-1.80;99.90
12853;DHT22;6495;51.808;7.478;2024-01-10T10:08:12;-1.70;99.90
12853;DHT22;6495;51.808;7.478;2024-01-10T10:10:48;-1.60;99.90
12853;DHT22;6495;51.808;7.478;2024-01-10T10:13:30;-1.60;99.90
12853;DHT22;6495;51.808;7.478;2024-01-10T10:16:36;-1.40;99.90
12853;DHT22;6495;51.808;7.478;2024-01-10T10:19:05;-1.40;99.90
12853;DHT22;6495;51.808;7.478;2024-01-10T10:21:34;-1.30;99.90
12853;DHT22;6495;51.808;7.478;2024-01-10T10:24:03;-1.30;99.90
12853;DHT22;6495;51.808;7.478;2024-01-10T10:26:32;-1.20;99.90
12853;DHT22;6495;51.808;7.478;2024-01-10T10:29:02;-1.20;99.90
12853;DHT22;6495;51.808;7.478;2024-01-10T10:31:31;-1.10;99.90
12853;DHT22;6495;51.808;7.478;2024-01-10T10:34:04;-1.00;99.90
12853;DHT22;6495;51.808;7.478;2024-01-10T10:36:33;-0.90;99.90
12853;DHT22;6495;51.808;7.478;2024-01-10T10:39:01;-0.80;99.90
12853;DHT22;6495;51.808;7.478;2024-01-10T10:41:32;-0.70;99.90
12853;DHT22;6495;51.808;7.478;2024-01-10T10:44:02;-0.60;99.90
12853;DHT22;6495;51.808;7.478;2024-01-10T10:46:35;-0.50;99.90
12853;DHT22;6495;51.808;7.478;2024-01-10T10:49:11;-0.40;99.90
12853;DHT22;6495;51.808;7.478;2024-01-10T10:51:41;-0.30;99.90
12853;DHT22;6495;51.808;7.478;2024-01-10T10:54:12;-0.30;99.90
12853;DHT22;6495;51.808;7.478;2024-01-10T10:56:43;-0.20;99.90
12853;DHT22;6495;51.808;7.478;2024-01-10T10:59:13;-0.10;99.90
12853;DHT22;6495;51.808;7.478;2024-01-10T11:01:45;-0.10;99.90
12853;DHT22;6495;51.808;7.478;2024-01-10T11:04:24;0.00;99.90
12853;DHT22;6495;51.808;7.478;2024-01-10T11:06:55;0.10;99.90
12853;DHT22;6495;51.808;7.478;2024-01-10T11:09:25;0.20;99.90
12853;DHT22;6495;51.808;7.478;2024-01-10T11:12:14;0.30;99.90
12853;DHT22;6495;51.808;7.478;2024-01-10T11:15:09;0.40;99.90
12853;DHT22;6495;51.808;7.478;2024-01-10T11:18:08;0.50;99.90
12853;DHT22;6495;51.808;7.478;2024-01-10T11:21:06;0.60;99.90
12853;DHT22;6495;51.808;7.478;2024-01-10T11:24:00;0.70;99.90
12853;DHT22;6495;51.808;7.478;2024-01-10T11:26:40;0.90;99.90
12853;DHT22;6495;51.808;7.478;2024-01-10T11:29:14;1.00;99.90
12853;DHT22;6495;51.808;7.478;2024-01-10T11:35:24;1.20;99.90
12853;DHT22;6495;51.808;7.478;2024-01-10T11:38:12;1.30;99.90
12853;DHT22;6495;51.808;7.478;2024-01-10T11:41:10;1.40;99.80
12853;DHT22;6495;51.808;7.478;2024-01-10T11:43:44;1.40;98.80
12853;DHT22;6495;51.808;7.478;2024-01-10T11:46:41;1.50;98.40
12853;DHT22;6495;51.808;7.478;2024-01-10T11:49:29;1.60;98.80
12853;DHT22;6495;51.808;7.478;2024-01-10T11:52:14;1.60;98.00
12853;DHT22;6495;51.808;7.478;2024-01-10T11:54:45;1.70;98.00
12853;DHT22;6495;51.808;7.478;2024-01-10T11:57:19;1.70;98.30
12853;DHT22;6495;51.808;7.478;2024-01-10T11:59:53;1.70;97.80
12853;DHT22;6495;51.808;7.478;2024-01-10T12:02:23;1.70;97.80
12853;DHT22;6495;51.808;7.478;2024-01-10T12:04:53;1.80;98.10
12853;DHT22;6495;51.808;7.478;2024-01-10T12:07:23;1.80;97.40
12853;DHT22;6495;51.808;7.478;2024-01-10T12:09:54;1.90;96.70
12853;DHT22;6495;51.808;7.478;2024-01-10T12:12:23;1.80;97.10
12853;DHT22;6495;51.808;7.478;2024-01-10T12:14:52;1.90;98.00
12853;DHT22;6495;51.808;7.478;2024-01-10T12:17:21;1.80;97.70
12853;DHT22;6495;51.808;7.478;2024-01-10T12:19:50;1.80;97.40
12853;DHT22;6495;51.808;7.478;2024-01-10T12:22:20;1.80;97.50
12853;DHT22;6495;51.808;7.478;2024-01-10T12:24:49;1.70;96.10
12853;DHT22;6495;51.808;7.478;2024-01-10T12:27:21;1.60;97.60
12853;DHT22;6495;51.808;7.478;2024-01-10T12:29:51;1.50;96.80
12853;DHT22;6495;51.808;7.478;2024-01-10T12:32:24;1.40;97.10
12853;DHT22;6495;51.808;7.478;2024-01-10T12:35:01;1.30;97.20
12853;DHT22;6495;51.808;7.478;2024-01-10T12:37:31;1.30;97.30
12853;DHT22;6495;51.808;7.478;2024-01-10T12:40:00;1.20;96.70
12853;DHT22;6495;51.808;7.478;2024-01-10T12:42:38;1.20;97.50
12853;DHT22;6495;51.808;7.478;2024-01-10T12:45:20;1.10;97.00
12853;DHT22;6495;51.808;7.478;2024-01-10T12:47:49;1.10;97.10
12853;DHT22;6495;51.808;7.478;2024-01-10T12:50:21;1.10;98.10
12853;DHT22;6495;51.808;7.478;2024-01-10T12:52:49;1.00;97.80
12853;DHT22;6495;51.808;7.478;2024-01-10T12:55:26;1.00;98.40
12853;DHT22;6495;51.808;7.478;2024-01-10T12:57:58;1.00;98.20
12853;DHT22;6495;51.808;7.478;2024-01-10T13:00:34;0.90;97.50
12853;DHT22;6495;51.808;7.478;2024-01-10T13:03:04;0.90;97.70
12853;DHT22;6495;51.808;7.478;2024-01-10T13:05:34;0.90;98.20
12853;DHT22;6495;51.808;7.478;2024-01-10T13:08:04;0.90;97.60
12853;DHT22;6495;51.808;7.478;2024-01-10T13:10:34;0.90;98.30
12853;DHT22;6495;51.808;7.478;2024-01-10T13:13:05;0.90;98.10
12853;DHT22;6495;51.808;7.478;2024-01-10T13:15:34;0.80;96.50
12853;DHT22;6495;51.808;7.478;2024-01-10T13:18:03;0.80;97.80
12853;DHT22;6495;51.808;7.478;2024-01-10T13:20:32;0.80;98.40
12853;DHT22;6495;51.808;7.478;2024-01-10T13:23:01;0.80;98.50
12853;DHT22;6495;51.808;7.478;2024-01-10T13:25:30;0.80;98.40
12853;DHT22;6495;51.808;7.478;2024-01-10T13:27:59;0.80;98.40
12853;DHT22;6495;51.808;7.478;2024-01-10T13:30:29;0.80;98.20
12853;DHT22;6495;51.808;7.478;2024-01-10T13:32:59;0.80;98.40
12853;DHT22;6495;51.808;7.478;2024-01-10T13:35:28;0.80;98.30
12853;DHT22;6495;51.808;7.478;2024-01-10T13:37:56;0.80;98.10
12853;DHT22;6495;51.808;7.478;2024-01-10T13:40:25;0.80;97.80
12853;DHT22;6495;51.808;7.478;2024-01-10T13:42:54;0.70;97.60
12853;DHT22;6495;51.808;7.478;2024-01-10T13:45:23;0.70;97.10
12853;DHT22;6495;51.808;7.478;2024-01-10T13:47:53;0.70;97.60
12853;DHT22;6495;51.808;7.478;2024-01-10T13:50:22;0.70;97.50
12853;DHT22;6495;51.808;7.478;2024-01-10T13:52:52;0.70;97.20
12853;DHT22;6495;51.808;7.478;2024-01-10T13:55:21;0.70;97.60
12853;DHT22;6495;51.808;7.478;2024-01-10T13:57:51;0.70;98.50
12853;DHT22;6495;51.808;7.478;2024-01-10T14:00:20;0.70;97.80
12853;DHT22;6495;51.808;7.478;2024-01-10T14:02:49;0.70;97.80
12853;DHT22;6495;51.808;7.478;2024-01-10T14:05:19;0.70;98.20
12853;DHT22;6495;51.808;7.478;2024-01-10T14:07:48;0.70;97.80
12853;DHT22;6495;51.808;7.478;2024-01-10T14:10:17;0.70;97.30
12853;DHT22;6495;51.808;7.478;2024-01-10T14:12:46;0.70;97.90
12853;DHT22;6495;51.808;7.478;2024-01-10T14:15:14;0.70;97.10
12853;DHT22;6495;51.808;7.478;2024-01-10T14:17:43;0.60;97.80
12853;DHT22;6495;51.808;7.478;2024-01-10T14:20:11;0.60;97.80
12853;DHT22;6495;51.808;7.478;2024-01-10T14:22:44;0.70;98.10
12853;DHT22;6495;51.808;7.478;2024-01-10T14:25:13;0.70;98.60
12853;DHT22;6495;51.808;7.478;2024-01-10T14:27:41;0.70;98.60
12853;DHT22;6495;51.808;7.478;2024-01-10T14:30:12;0.70;98.10
12853;DHT22;6495;51.808;7.478;2024-01-10T14:32:43;0.70;98.90
12853;DHT22;6495;51.808;7.478;2024-01-10T14:35:14;0.70;98.60
12853;DHT22;6495;51.808;7.478;2024-01-10T14:37:45;0.70;98.50
12853;DHT22;6495;51.808;7.478;2024-01-10T14:40:13;0.70;98.10
12853;DHT22;6495;51.808;7.478;2024-01-10T14:42:42;0.60;98.10
12853;DHT22;6495;51.808;7.478;2024-01-10T14:45:12;0.60;98.40
12853;DHT22;6495;51.808;7.478;2024-01-10T14:47:41;0.60;98.40
12853;DHT22;6495;51.808;7.478;2024-01-10T14:50:10;0.60;98.90
12853;DHT22;6495;51.808;7.478;2024-01-10T14:52:41;0.60;98.50
12853;DHT22;6495;51.808;7.478;2024-01-10T14:55:15;0.60;98.70
12853;DHT22;6495;51.808;7.478;2024-01-10T14:57:43;0.60;98.90
12853;DHT22;6495;51.808;7.478;2024-01-10T15:00:13;0.60;98.80
12853;DHT22;6495;51.808;7.478;2024-01-10T15:02:42;0.60;98.60
12853;DHT22;6495;51.808;7.478;2024-01-10T15:05:11;0.60;98.60
12853;DHT22;6495;51.808;7.478;2024-01-10T15:07:40;0.60;98.80
12853;DHT22;6495;51.808;7.478;2024-01-10T15:10:09;0.60;98.80
12853;DHT22;6495;51.808;7.478;2024-01-10T15:12:40;0.50;98.60
12853;DHT22;6495;51.808;7.478;2024-01-10T15:20:21;0.50;98.80
12853;DHT22;6495;51.808;7.478;2024-01-10T15:22:49;0.40;98.70
12853;DHT22;6495;51.808;7.478;2024-01-10T15:25:18;0.40;98.90
12853;DHT22;6495;51.808;7.478;2024-01-10T15:27:48;0.40;99.10
12853;DHT22;6495;51.808;7.478;2024-01-10T15:30:16;0.40;99.20
12853;DHT22;6495;51.808;7.478;2024-01-10T15:32:49;0.40;99.40
12853;DHT22;6495;51.808;7.478;2024-01-10T15:35:17;0.30;99.20
12853;DHT22;6495;51.808;7.478;2024-01-10T15:37:46;0.30;99.10
12853;DHT22;6495;51.808;7.478;2024-01-10T15:40:16;0.30;99.00
12853;DHT22;6495;51.808;7.478;2024-01-10T15:42:44;0.30;99.10
12853;DHT22;6495;51.808;7.478;2024-01-10T15:45:14;0.30;99.20
12853;DHT22;6495;51.808;7.478;2024-01-10T15:47:43;0.30;99.40
12853;DHT22;6495;51.808;7.478;2024-01-10T15:50:12;0.20;99.80
12853;DHT22;6495;51.808;7.478;2024-01-10T15:52:42;0.20;99.60
12853;DHT22;6495;51.808;7.478;2024-01-10T15:55:11;0.20;99.80
12853;DHT22;6495;51.808;7.478;2024-01-10T15:57:39;0.20;99.90
12853;DHT22;6495;51.808;7.478;2024-01-10T16:00:12;0.10;99.90
12853;DHT22;6495;51.808;7.478;2024-01-10T16:02:42;0.10;99.90
12853;DHT22;6495;51.808;7.478;2024-01-10T16:05:11;0.10;99.90
12853;DHT22;6495;51.808;7.478;2024-01-10T16:07:39;0.00;99.90
12853;DHT22;6495;51.808;7.478;2024-01-10T16:10:09;0.00;99.90
12853;DHT22;6495;51.808;7.478;2024-01-10T16:12:39;0.00;99.90
12853;DHT22;6495;51.808;7.478;2024-01-10T16:15:09;0.00;99.90
12853;DHT22;6495;51.808;7.478;2024-01-10T16:17:39;-0.10;99.90